createdAt,value
2022-07-28T05:39:19.314Z,13.70
2022-07-28T05:44:21.265Z,13.80
2022-07-28T05:49:23.834Z,13.90
2022-07-28T05:54:27.041Z,13.90
2022-07-28T05:59:28.967Z,14.00
2022-07-28T06:04:31.464Z,14.10
2022-07-28T06:09:33.537Z,14.20
2022-07-28T06:14:35.464Z,14.30
2022-07-28T06:19:37.401Z,14.40
2022-07-28T06:24:39.327Z,14.50
2022-07-28T06:29:41.259Z,14.60
2022-07-28T06:34:45.995Z,14.60
2022-07-28T06:39:48.008Z,14.70
2022-07-28T06:44:58.944Z,14.80
2022-07-28T06:50:02.157Z,14.90
2022-07-28T06:55:07.932Z,14.90
2022-07-28T07:00:14.206Z,15.10
2022-07-28T07:05:16.532Z,15.20
2022-07-28T07:10:18.564Z,15.30
2022-07-28T07:15:20.581Z,15.30
2022-07-28T07:20:22.642Z,15.50
2022-07-28T07:25:24.581Z,15.50
2022-07-28T07:30:26.514Z,15.60
2022-07-28T07:35:28.510Z,15.60
2022-07-28T07:40:31.060Z,15.80
2022-07-28T07:45:34.436Z,15.80
2022-07-28T07:50:37.299Z,15.80
2022-07-28T07:55:39.407Z,15.90
2022-07-28T08:00:41.349Z,16.00
2022-07-28T08:05:43.626Z,16.20
2022-07-28T08:10:45.579Z,16.40
2022-07-28T08:15:47.717Z,16.60
2022-07-28T08:20:49.755Z,16.80
2022-07-28T08:25:51.695Z,17.00
2022-07-28T08:30:53.773Z,17.20
2022-07-28T08:35:55.860Z,17.40
2022-07-28T08:40:59.388Z,17.50
2022-07-28T08:46:04.792Z,17.60
2022-07-28T08:51:12.478Z,17.70
2022-07-28T08:56:16.150Z,17.90
2022-07-28T09:01:18.581Z,18.00
2022-07-28T09:06:21.944Z,18.10
2022-07-28T09:11:28.636Z,18.30
2022-07-28T09:16:31.296Z,18.40
2022-07-28T09:21:33.587Z,18.60
2022-07-28T09:26:35.565Z,18.80
2022-07-28T09:31:55.842Z,19.00
2022-07-28T09:36:59.615Z,19.20
2022-07-28T09:42:01.659Z,19.40
2022-07-28T09:47:28.293Z,19.40
2022-07-28T09:52:38.463Z,19.40
2022-07-28T09:57:42.671Z,19.50
2022-07-28T10:02:50.593Z,19.80
2022-07-28T10:07:52.732Z,19.90
2022-07-28T10:13:06.219Z,20.10
2022-07-28T10:18:08.283Z,20.30
2022-07-28T10:23:13.912Z,20.40
2022-07-28T10:28:20.419Z,20.50
2022-07-28T10:33:24.731Z,20.70
2022-07-28T10:38:34.652Z,20.90
2022-07-28T10:43:42.819Z,21.10
2022-07-28T10:48:48.390Z,21.20
2022-07-28T10:54:24.815Z,21.40
2022-07-28T10:59:58.226Z,21.60
2022-07-28T11:05:02.056Z,22.00
2022-07-28T11:10:18.103Z,22.30
2022-07-28T11:15:28.095Z,22.20
2022-07-28T11:21:00.242Z,22.30
2022-07-28T11:26:20.947Z,22.70
2022-07-28T11:31:48.982Z,23.10
2022-07-28T11:37:03.051Z,23.50
2022-07-28T11:42:27.000Z,23.90
2022-07-28T11:47:31.864Z,23.90
2022-07-28T11:52:33.897Z,23.80
2022-07-28T11:57:44.089Z,23.50
2022-07-28T12:02:46.270Z,23.30
2022-07-28T12:07:53.095Z,23.40
2022-07-28T12:13:00.240Z,23.70
2022-07-28T12:18:02.832Z,23.60
2022-07-28T12:23:08.006Z,24.00
2022-07-28T12:28:22.573Z,24.60
2022-07-28T12:33:29.700Z,24.60
2022-07-28T12:38:32.641Z,24.60
2022-07-28T12:43:34.669Z,24.30
2022-07-28T12:48:41.478Z,24.00
2022-07-28T12:53:52.692Z,24.10
2022-07-28T12:59:13.428Z,24.60
2022-07-28T13:04:18.353Z,24.70
2022-07-28T13:09:33.010Z,25.20
2022-07-28T13:14:46.695Z,25.40
2022-07-28T13:19:49.606Z,25.60
2022-07-28T13:24:51.613Z,26.00
2022-07-28T13:29:53.918Z,26.00
2022-07-28T13:34:57.003Z,25.70
2022-07-28T13:40:01.739Z,25.30
2022-07-28T13:45:05.077Z,25.30
2022-07-28T13:50:09.723Z,25.30
2022-07-28T13:55:13.355Z,25.50
2022-07-28T14:00:23.033Z,25.30
2022-07-28T14:05:25.114Z,25.00
2022-07-28T14:10:35.851Z,24.90
2022-07-28T14:15:41.256Z,24.70
2022-07-28T14:20:43.361Z,24.60
2022-07-28T14:25:49.559Z,24.50
2022-07-28T14:30:53.000Z,24.50
2022-07-28T14:35:55.295Z,24.50
2022-07-28T14:40:57.666Z,24.40
2022-07-28T14:46:14.635Z,24.30
2022-07-28T14:51:18.696Z,24.30
2022-07-28T14:56:20.822Z,24.50
2022-07-28T15:01:22.841Z,24.70
2022-07-28T15:06:26.371Z,24.50
2022-07-28T15:11:28.297Z,24.50
2022-07-28T15:16:30.916Z,24.50
2022-07-28T15:21:36.317Z,24.50
2022-07-28T15:26:38.577Z,24.70
2022-07-28T15:31:42.451Z,24.60
2022-07-28T15:36:47.754Z,24.30
2022-07-28T15:41:50.862Z,24.20
2022-07-28T15:46:53.002Z,24.10
2022-07-28T15:51:57.715Z,24.00
2022-07-28T15:56:59.926Z,23.90
2022-07-28T16:02:01.877Z,23.80
2022-07-28T16:07:19.394Z,23.70
2022-07-28T16:12:25.501Z,23.60
2022-07-28T16:17:27.669Z,23.60
2022-07-28T16:22:29.523Z,23.60
2022-07-28T16:27:31.576Z,23.60
2022-07-28T16:32:33.490Z,23.60
2022-07-28T16:37:36.013Z,23.50
2022-07-28T16:42:38.071Z,23.60
2022-07-28T16:47:39.865Z,23.40
2022-07-28T16:52:41.796Z,23.40
2022-07-28T16:57:43.735Z,23.40
2022-07-28T17:02:48.405Z,23.40
2022-07-28T17:07:51.404Z,23.30
2022-07-28T17:12:53.367Z,23.20
2022-07-28T17:17:56.086Z,23.10
2022-07-28T17:22:58.841Z,23.10
2022-07-28T17:28:00.997Z,23.10
2022-07-28T17:33:08.669Z,23.00
2022-07-28T17:38:12.676Z,22.90
2022-07-28T17:43:16.140Z,22.90
2022-07-28T17:48:18.714Z,22.80
2022-07-28T17:53:20.715Z,22.70
2022-07-28T17:58:29.012Z,22.70
2022-07-28T18:03:31.685Z,22.60
2022-07-28T18:08:53.544Z,22.60
2022-07-28T18:14:04.093Z,22.50
2022-07-28T18:19:07.136Z,22.50
2022-07-28T18:24:09.277Z,22.40
2022-07-28T18:29:11.129Z,22.40
2022-07-28T18:34:14.268Z,22.40
2022-07-28T18:39:16.592Z,22.30
2022-07-28T18:44:19.774Z,22.20
2022-07-28T18:49:22.405Z,22.10
2022-07-28T18:54:27.657Z,22.10
2022-07-28T18:59:30.071Z,22.00
2022-07-28T19:04:33.277Z,22.00
2022-07-28T19:09:38.819Z,21.90
2022-07-28T19:14:41.462Z,21.90
2022-07-28T19:19:43.486Z,21.80
2022-07-28T19:24:49.867Z,21.80
2022-07-28T19:29:51.964Z,21.80
2022-07-28T19:34:53.857Z,21.60
2022-07-28T19:39:55.926Z,21.50
2022-07-28T19:44:58.644Z,21.50
2022-07-28T19:50:00.730Z,21.40
2022-07-28T19:55:04.311Z,21.30
2022-07-28T20:00:08.826Z,21.30
